createdAt,value
2022-11-29T00:01:28.843Z,33.43
2022-11-29T00:03:56.752Z,31.77
2022-11-29T00:06:27.637Z,33.27
2022-11-29T00:08:56.998Z,33.40
2022-11-29T00:11:46.458Z,33.43
2022-11-29T00:14:16.260Z,31.30
2022-11-29T00:16:44.082Z,32.93
2022-11-29T00:19:12.837Z,31.47
2022-11-29T00:21:39.901Z,31.17
2022-11-29T00:24:07.905Z,30.13
2022-11-29T00:26:37.147Z,30.27
2022-11-29T00:29:04.548Z,30.70
2022-11-29T00:31:33.653Z,32.87
2022-11-29T00:34:03.856Z,32.93
2022-11-29T00:36:31.362Z,31.77
2022-11-29T00:38:58.851Z,32.27
2022-11-29T00:41:26.090Z,32.73
2022-11-29T00:43:53.279Z,30.23
2022-11-29T00:46:20.760Z,29.40
2022-11-29T00:48:48.006Z,32.43
2022-11-29T00:51:15.182Z,30.50
2022-11-29T00:53:42.491Z,30.03
2022-11-29T00:56:09.752Z,29.60
2022-11-29T00:58:37.954Z,30.73
2022-11-29T01:01:06.149Z,31.27
2022-11-29T01:03:34.498Z,33.53
2022-11-29T01:06:05.310Z,29.87
2022-11-29T01:08:32.852Z,30.47
2022-11-29T01:11:20.748Z,29.13
2022-11-29T01:13:49.170Z,31.10
2022-11-29T01:16:17.446Z,26.47
2022-11-29T01:18:44.624Z,26.23
2022-11-29T01:21:14.039Z,24.80
2022-11-29T01:23:41.945Z,26.60
2022-11-29T01:26:12.468Z,27.63
2022-11-29T01:28:41.210Z,28.70
2022-11-29T01:31:29.689Z,24.87
2022-11-29T01:34:01.020Z,25.37
2022-11-29T01:36:28.850Z,26.43
2022-11-29T01:38:55.954Z,25.63
2022-11-29T01:41:25.721Z,24.77
2022-11-29T01:44:32.498Z,25.63
2022-11-29T01:46:59.681Z,22.03
2022-11-29T01:49:36.137Z,25.63
2022-11-29T01:52:25.108Z,23.23
2022-11-29T01:54:58.909Z,23.07
2022-11-29T01:57:26.695Z,23.50
2022-11-29T02:00:00.725Z,22.83
2022-11-29T02:02:34.207Z,21.43
2022-11-29T02:05:02.211Z,23.10
2022-11-29T02:07:29.425Z,21.70
2022-11-29T02:09:56.624Z,21.57
2022-11-29T02:13:03.416Z,22.60
2022-11-29T02:15:58.615Z,22.90
2022-11-29T02:19:05.438Z,27.08
2022-11-29T02:21:56.691Z,20.67
2022-11-29T02:24:59.951Z,21.57
2022-11-29T02:28:03.995Z,31.07
2022-11-29T02:30:58.028Z,23.10
2022-11-29T02:34:04.877Z,23.07
2022-11-29T02:37:11.918Z,22.90
2022-11-29T02:40:06.684Z,23.13
2022-11-29T02:43:13.440Z,23.13
2022-11-29T02:46:07.725Z,23.47
2022-11-29T02:48:55.915Z,24.57
2022-11-29T02:51:55.988Z,26.13
2022-11-29T02:54:46.793Z,27.10
2022-11-29T02:57:36.846Z,25.70
2022-11-29T03:00:13.614Z,25.07
2022-11-29T03:03:20.407Z,24.87
2022-11-29T03:06:06.949Z,22.20
2022-11-29T03:08:45.370Z,23.30
2022-11-29T03:11:38.252Z,22.53
2022-11-29T03:14:28.590Z,22.17
2022-11-29T03:17:35.349Z,22.60
2022-11-29T03:20:37.749Z,21.97
2022-11-29T03:23:44.562Z,21.33
2022-11-29T03:26:19.018Z,20.40
2022-11-29T03:29:11.599Z,21.17
2022-11-29T03:32:05.681Z,20.23
2022-11-29T03:35:04.473Z,22.25
2022-11-29T03:38:11.188Z,20.03
2022-11-29T03:43:18.319Z,18.93
2022-11-29T03:46:04.054Z,17.50
2022-11-29T03:56:39.784Z,18.50
2022-11-29T03:59:46.682Z,17.30
2022-11-29T04:02:53.658Z,16.52
2022-11-29T04:06:00.615Z,16.63
2022-11-29T04:09:07.379Z,16.00
2022-11-29T04:12:14.206Z,16.97
2022-11-29T04:15:15.649Z,16.23
2022-11-29T04:18:22.618Z,17.00
2022-11-29T04:21:29.469Z,15.67
2022-11-29T04:24:19.396Z,15.45
2022-11-29T04:27:26.216Z,18.03
2022-11-29T04:30:11.637Z,18.03
2022-11-29T04:33:18.411Z,15.88
2022-11-29T04:36:11.438Z,17.10
2022-11-29T04:39:18.139Z,16.57
2022-11-29T04:45:11.629Z,18.48
2022-11-29T04:50:52.538Z,16.97
2022-11-29T04:53:59.321Z,16.55
2022-11-29T04:56:39.876Z,18.90
2022-11-29T04:59:39.148Z,18.23
2022-11-29T05:02:31.696Z,17.58
2022-11-29T05:05:24.647Z,16.85
2022-11-29T05:08:22.772Z,16.40
2022-11-29T05:11:08.680Z,17.23
2022-11-29T05:14:02.275Z,16.57
2022-11-29T05:17:09.290Z,17.88
2022-11-29T05:20:16.173Z,15.43
2022-11-29T05:23:11.574Z,16.25
2022-11-29T05:26:02.558Z,16.60
2022-11-29T05:29:01.856Z,16.37
2022-11-29T05:32:09.017Z,15.73
2022-11-29T05:35:04.964Z,15.18
2022-11-29T05:37:55.341Z,14.55
2022-11-29T05:40:54.620Z,16.80
2022-11-29T05:44:01.347Z,16.98
2022-11-29T05:46:50.647Z,14.93
2022-11-29T05:49:51.384Z,16.08
2022-11-29T05:52:57.597Z,15.90
2022-11-29T05:55:49.725Z,16.48
2022-11-29T05:58:56.547Z,16.48
2022-11-29T06:01:26.431Z,17.52
2022-11-29T06:04:18.833Z,17.23
2022-11-29T06:07:25.613Z,18.13
2022-11-29T06:10:15.183Z,18.30
2022-11-29T06:12:48.755Z,19.88
2022-11-29T06:15:56.933Z,19.33
2022-11-29T06:19:03.783Z,18.23
2022-11-29T06:21:45.894Z,19.60
2022-11-29T06:24:28.548Z,19.48
2022-11-29T06:27:36.614Z,19.75
2022-11-29T06:30:14.961Z,18.97
2022-11-29T06:33:22.283Z,20.02
2022-11-29T06:36:18.074Z,21.38
2022-11-29T06:38:46.059Z,18.42
2022-11-29T06:41:18.580Z,18.07
2022-11-29T06:43:46.312Z,21.63
2022-11-29T06:46:53.230Z,20.57
2022-11-29T06:50:00.101Z,22.00
2022-11-29T06:53:06.907Z,20.23
2022-11-29T06:56:02.473Z,19.27
2022-11-29T06:59:09.255Z,21.05
2022-11-29T07:01:51.542Z,21.48
2022-11-29T07:04:58.769Z,20.73
2022-11-29T07:07:26.246Z,21.58
2022-11-29T07:09:58.615Z,20.38
2022-11-29T07:12:26.308Z,19.63
2022-11-29T07:14:53.878Z,22.23
2022-11-29T07:17:55.137Z,20.33
2022-11-29T07:20:48.678Z,20.58
2022-11-29T07:23:55.401Z,20.83
2022-11-29T07:26:58.038Z,21.17
2022-11-29T07:29:52.022Z,21.35
2022-11-29T07:33:00.643Z,24.38
2022-11-29T07:35:53.053Z,21.42
2022-11-29T07:38:59.751Z,23.33
2022-11-29T07:41:51.460Z,22.75
2022-11-29T07:44:45.436Z,24.00
2022-11-29T07:47:13.301Z,21.63
2022-11-29T07:49:40.399Z,23.00
2022-11-29T07:52:10.092Z,21.15
2022-11-29T07:54:37.154Z,23.60
2022-11-29T07:57:04.259Z,23.40
2022-11-29T07:59:31.367Z,23.55
2022-11-29T08:01:59.450Z,23.02
2022-11-29T08:04:26.732Z,22.52
2022-11-29T08:06:53.819Z,23.77
2022-11-29T08:09:20.877Z,26.67
2022-11-29T08:11:48.993Z,25.77
2022-11-29T08:14:16.503Z,23.15
2022-11-29T08:16:43.562Z,23.55
2022-11-29T08:19:10.717Z,24.15
2022-11-29T08:21:37.752Z,22.83
2022-11-29T08:24:05.372Z,24.17
2022-11-29T08:26:32.628Z,26.27
2022-11-29T08:28:59.713Z,24.05
2022-11-29T08:31:27.061Z,24.92
2022-11-29T08:33:54.169Z,25.35
2022-11-29T08:36:21.336Z,26.20
2022-11-29T08:38:48.658Z,24.42
2022-11-29T08:41:17.785Z,23.52
2022-11-29T08:43:45.278Z,24.33
2022-11-29T08:46:18.282Z,26.05
2022-11-29T08:48:46.416Z,25.35
2022-11-29T08:51:14.075Z,26.08
2022-11-29T08:53:42.322Z,24.48
2022-11-29T08:57:10.022Z,22.92
2022-11-29T08:59:16.366Z,23.98
2022-11-29T09:01:43.375Z,25.42
2022-11-29T09:04:12.104Z,23.65
2022-11-29T09:06:43.005Z,25.77
2022-11-29T09:09:10.330Z,25.20
2022-11-29T09:11:37.469Z,24.58
2022-11-29T09:14:08.518Z,26.73
2022-11-29T09:16:37.705Z,26.52
2022-11-29T09:19:05.598Z,23.88
2022-11-29T09:21:35.024Z,25.88
2022-11-29T09:24:05.596Z,26.50
2022-11-29T09:26:35.074Z,24.38
2022-11-29T09:29:04.527Z,25.63
2022-11-29T09:31:32.671Z,27.67
2022-11-29T09:34:00.195Z,25.88
2022-11-29T09:36:29.469Z,27.20
2022-11-29T09:38:57.580Z,28.48
2022-11-29T09:42:04.353Z,29.05
2022-11-29T09:44:56.156Z,25.85
2022-11-29T09:48:02.967Z,26.77
2022-11-29T09:50:45.763Z,28.80
2022-11-29T09:53:52.572Z,27.75
2022-11-29T09:56:41.804Z,27.75
2022-11-29T09:59:14.281Z,27.87
2022-11-29T10:01:51.615Z,30.63
2022-11-29T10:04:22.892Z,33.67
2022-11-29T10:07:29.695Z,30.13
2022-11-29T10:10:08.054Z,27.42
2022-11-29T10:12:44.386Z,26.35
2022-11-29T10:15:17.208Z,28.80
2022-11-29T10:18:07.877Z,24.90
2022-11-29T10:20:41.546Z,26.60
2022-11-29T10:23:36.889Z,28.03
2022-11-29T10:26:08.134Z,29.70
2022-11-29T10:28:37.287Z,28.38
2022-11-29T10:31:32.042Z,27.15
2022-11-29T10:34:02.626Z,31.27
2022-11-29T10:36:51.071Z,30.38
2022-11-29T10:39:58.801Z,28.20
2022-11-29T10:42:48.609Z,30.05
2022-11-29T10:45:46.081Z,30.93
2022-11-29T10:48:18.181Z,31.60
2022-11-29T10:50:48.857Z,28.83
2022-11-29T10:53:20.557Z,31.73
2022-11-29T10:56:11.201Z,30.80
2022-11-29T10:58:56.488Z,33.78
2022-11-29T11:01:24.694Z,29.90
2022-11-29T11:03:54.316Z,31.03
2022-11-29T11:06:45.489Z,29.17
2022-11-29T11:09:35.149Z,27.07
2022-11-29T11:12:06.423Z,27.37
2022-11-29T11:14:37.723Z,30.23
2022-11-29T11:17:27.387Z,28.90
2022-11-29T11:20:15.761Z,30.07
2022-11-29T11:22:44.115Z,31.47
2022-11-29T11:25:30.614Z,29.63
2022-11-29T11:28:10.761Z,31.47
2022-11-29T11:30:38.119Z,27.97
2022-11-29T11:33:26.991Z,30.57
2022-11-29T11:36:21.206Z,28.77
2022-11-29T11:39:27.976Z,29.43
2022-11-29T11:42:15.147Z,29.20
2022-11-29T11:44:50.512Z,29.83
2022-11-29T11:50:15.676Z,28.20
2022-11-29T11:52:52.519Z,24.25
2022-11-29T11:55:40.823Z,29.27
2022-11-29T11:58:38.180Z,31.13
2022-11-29T12:01:40.901Z,27.00
2022-11-29T12:04:31.772Z,29.90
2022-11-29T12:07:33.946Z,30.60
2022-11-29T12:10:19.629Z,30.47
2022-11-29T12:12:48.708Z,30.43
2022-11-29T12:15:38.629Z,30.97
2022-11-29T12:18:14.290Z,28.23
2022-11-29T12:21:04.698Z,30.60
2022-11-29T12:24:11.424Z,29.83
2022-11-29T12:26:58.367Z,32.90
2022-11-29T12:29:30.156Z,30.27
2022-11-29T12:32:26.555Z,28.57
2022-11-29T12:35:34.642Z,31.57
2022-11-29T12:38:31.815Z,31.27
2022-11-29T12:41:26.756Z,31.83
2022-11-29T12:44:18.932Z,29.33
2022-11-29T12:47:13.286Z,29.83
2022-11-29T12:50:01.344Z,30.98
2022-11-29T12:52:56.414Z,31.23
2022-11-29T12:55:49.583Z,28.70
2022-11-29T12:58:56.483Z,28.20
2022-11-29T13:02:04.333Z,29.47
2022-11-29T13:05:11.063Z,28.83
2022-11-29T13:11:04.607Z,30.33
2022-11-29T13:14:03.842Z,29.80
2022-11-29T13:17:03.801Z,32.17
2022-11-29T13:19:53.572Z,30.60
2022-11-29T13:22:46.738Z,30.50
2022-11-29T13:25:27.621Z,30.75
2022-11-29T13:27:59.875Z,38.10
2022-11-29T13:30:27.232Z,34.53
2022-11-29T13:33:18.299Z,34.00
2022-11-29T13:36:01.452Z,28.27
2022-11-29T13:39:08.122Z,28.00
2022-11-29T13:44:46.571Z,30.42
2022-11-29T13:47:16.835Z,28.93
2022-11-29T13:49:54.279Z,31.33
2022-11-29T13:53:01.152Z,31.10
2022-11-29T13:55:47.881Z,28.97
2022-11-29T13:58:36.620Z,28.53
2022-11-29T14:01:26.740Z,30.27
2022-11-29T14:04:21.919Z,29.50
2022-11-29T14:06:50.839Z,34.67
2022-11-29T14:09:42.929Z,34.72
2022-11-29T14:12:48.353Z,30.50
2022-11-29T14:15:34.268Z,31.03
2022-11-29T14:18:03.410Z,29.37
2022-11-29T14:20:57.107Z,31.05
2022-11-29T14:23:44.402Z,30.50
2022-11-29T14:26:27.918Z,30.93
2022-11-29T14:28:55.938Z,30.60
2022-11-29T14:31:51.007Z,29.60
2022-11-29T14:34:26.974Z,32.57
2022-11-29T14:37:19.590Z,31.53
2022-11-29T14:39:52.071Z,32.90
2022-11-29T14:42:22.091Z,31.53
2022-11-29T14:44:52.784Z,30.83
2022-11-29T14:47:42.691Z,34.13
2022-11-29T14:50:31.183Z,34.20
2022-11-29T14:52:58.758Z,34.30
2022-11-29T14:55:45.759Z,29.87
2022-11-29T14:58:19.591Z,30.27
2022-11-29T15:01:02.767Z,29.93
2022-11-29T15:03:41.782Z,28.47
2022-11-29T15:06:36.980Z,29.03
2022-11-29T15:09:19.275Z,29.27
2022-11-29T15:12:10.396Z,27.80
2022-11-29T15:15:17.116Z,27.08
2022-11-29T15:18:11.481Z,29.63
2022-11-29T15:21:18.317Z,30.13
2022-11-29T15:23:45.459Z,28.63
2022-11-29T15:26:19.210Z,28.70
2022-11-29T15:28:46.777Z,28.37
2022-11-29T15:31:16.724Z,28.37
2022-11-29T15:33:46.224Z,29.35
2022-11-29T15:36:34.654Z,29.00
2022-11-29T15:39:01.823Z,29.00
2022-11-29T15:41:31.874Z,27.65
2022-11-29T15:44:05.907Z,27.85
2022-11-29T15:46:35.690Z,25.25
2022-11-29T15:49:34.624Z,28.42
2022-11-29T15:52:08.576Z,28.48
2022-11-29T15:57:50.539Z,30.10
2022-11-29T16:00:36.105Z,33.58
2022-11-29T16:03:05.410Z,27.60
2022-11-29T16:05:36.530Z,28.60
2022-11-29T16:08:35.846Z,26.90
2022-11-29T16:11:06.142Z,28.23
2022-11-29T16:14:03.484Z,28.48
2022-11-29T16:16:41.755Z,28.63
2022-11-29T16:19:27.098Z,26.58
2022-11-29T16:22:37.582Z,24.73
2022-11-29T16:25:37.555Z,29.50
2022-11-29T16:28:17.682Z,27.77
2022-11-29T16:30:49.892Z,23.83
2022-11-29T16:33:26.963Z,25.15
2022-11-29T16:36:18.349Z,23.50
2022-11-29T16:38:51.460Z,26.13
2022-11-29T16:41:47.135Z,26.50
2022-11-29T16:45:02.427Z,25.25
2022-11-29T16:47:55.353Z,25.75
2022-11-29T16:50:30.418Z,24.83
2022-11-29T16:53:39.988Z,24.95
2022-11-29T16:56:20.701Z,23.65
2022-11-29T16:59:25.854Z,29.27
2022-11-29T17:02:10.028Z,28.52
2022-11-29T17:04:43.711Z,26.05
2022-11-29T17:07:30.717Z,24.70
2022-11-29T17:10:08.297Z,25.33
2022-11-29T17:12:36.066Z,26.88
2022-11-29T17:15:07.649Z,27.38
2022-11-29T17:17:39.571Z,26.67
2022-11-29T17:20:08.620Z,27.25
2022-11-29T17:23:17.782Z,23.48
2022-11-29T17:26:18.144Z,24.90
2022-11-29T17:28:53.712Z,22.77
2022-11-29T17:31:34.507Z,24.27
2022-11-29T17:34:12.529Z,23.48
2022-11-29T17:36:44.505Z,25.08
2022-11-29T17:39:20.360Z,26.60
2022-11-29T17:41:53.522Z,25.67
2022-11-29T17:44:27.530Z,26.35
2022-11-29T17:47:06.944Z,26.45
2022-11-29T17:49:45.313Z,25.40
2022-11-29T17:52:21.563Z,25.65
2022-11-29T17:54:57.662Z,24.08
2022-11-29T17:57:31.052Z,27.48
2022-11-29T18:00:10.822Z,25.60
2022-11-29T18:02:45.592Z,26.98
2022-11-29T18:05:18.911Z,27.88
2022-11-29T18:08:12.705Z,24.90
2022-11-29T18:10:47.909Z,25.83
2022-11-29T18:13:24.946Z,25.05
2022-11-29T18:16:05.206Z,24.92
2022-11-29T18:18:38.932Z,26.75
2022-11-29T18:21:20.058Z,26.67
2022-11-29T18:23:53.688Z,26.42
2022-11-29T18:26:30.089Z,26.70
2022-11-29T18:28:59.087Z,28.33
2022-11-29T18:31:32.246Z,28.05
2022-11-29T18:34:09.748Z,28.73
2022-11-29T18:36:52.319Z,28.02
2022-11-29T18:39:26.945Z,29.40
2022-11-29T18:42:02.999Z,28.05
2022-11-29T18:47:09.389Z,27.92
2022-11-29T18:52:31.146Z,24.90
2022-11-29T18:55:03.737Z,27.98
2022-11-29T18:57:35.364Z,25.00
2022-11-29T19:00:10.041Z,27.95
2022-11-29T19:02:43.921Z,27.85
2022-11-29T19:05:17.330Z,27.17
2022-11-29T19:07:51.537Z,27.10
2022-11-29T19:10:27.161Z,27.08
2022-11-29T19:13:03.988Z,26.00
2022-11-29T19:16:00.259Z,27.58
2022-11-29T19:18:38.022Z,30.52
2022-11-29T19:21:13.976Z,27.50
2022-11-29T19:23:48.746Z,30.30
2022-11-29T19:26:25.919Z,31.83
2022-11-29T19:28:54.687Z,31.90
2022-11-29T19:31:30.068Z,31.75
2022-11-29T19:34:06.080Z,34.78
2022-11-29T19:36:45.718Z,32.60
2022-11-29T19:39:21.708Z,33.13
2022-11-29T19:41:56.060Z,32.85
2022-11-29T19:44:30.165Z,31.43
2022-11-29T19:47:16.136Z,31.85
2022-11-29T19:49:50.396Z,27.85
2022-11-29T19:52:24.053Z,27.15
2022-11-29T19:54:57.090Z,24.25
2022-11-29T19:57:29.836Z,27.27
2022-11-29T20:00:13.123Z,26.17
2022-11-29T20:02:43.473Z,26.83
2022-11-29T20:05:25.443Z,28.75
2022-11-29T20:08:01.820Z,28.65
2022-11-29T20:10:38.748Z,29.83
2022-11-29T20:13:15.137Z,29.58
2022-11-29T20:15:48.669Z,29.67
2022-11-29T20:18:26.183Z,30.63
2022-11-29T20:20:58.567Z,30.23
2022-11-29T20:23:33.076Z,27.35
2022-11-29T20:26:06.198Z,24.90
2022-11-29T20:28:41.057Z,29.13
2022-11-29T20:31:17.166Z,28.45
2022-11-29T20:33:52.277Z,27.60
2022-11-29T20:36:52.884Z,25.38
2022-11-29T20:40:06.603Z,27.23
2022-11-29T20:43:17.812Z,26.30
2022-11-29T20:45:56.133Z,26.98
2022-11-29T20:48:34.098Z,23.90
2022-11-29T20:51:06.641Z,24.45
2022-11-29T20:53:42.923Z,26.52
2022-11-29T20:56:20.352Z,24.05
2022-11-29T20:58:56.897Z,24.73
2022-11-29T21:01:31.922Z,26.85
2022-11-29T21:04:22.849Z,24.35
2022-11-29T21:07:03.623Z,25.73
2022-11-29T21:09:38.766Z,24.85
2022-11-29T21:12:15.059Z,19.10
2022-11-29T21:14:44.555Z,25.45
2022-11-29T21:17:18.433Z,27.77
2022-11-29T21:19:59.256Z,25.52
2022-11-29T21:22:58.483Z,25.10
2022-11-29T21:26:03.895Z,25.23
2022-11-29T21:28:41.885Z,25.77
2022-11-29T21:31:19.601Z,25.83
2022-11-29T21:34:04.341Z,27.08
2022-11-29T21:39:22.075Z,27.20
2022-11-29T21:41:50.142Z,28.55
2022-11-29T21:44:17.896Z,24.33
2022-11-29T21:46:47.408Z,25.98
2022-11-29T21:49:15.369Z,27.67
2022-11-29T21:51:43.518Z,27.08
2022-11-29T21:54:11.933Z,25.27
2022-11-29T21:56:39.656Z,26.70
2022-11-29T21:59:06.939Z,27.63
2022-11-29T22:01:34.545Z,26.95
2022-11-29T22:04:02.369Z,26.70
2022-11-29T22:06:30.605Z,25.27
2022-11-29T22:09:09.357Z,28.10
2022-11-29T22:11:37.453Z,27.25
2022-11-29T22:14:16.496Z,27.05
2022-11-29T22:17:04.050Z,28.45
2022-11-29T22:19:34.426Z,28.45
2022-11-29T22:22:04.802Z,30.08
2022-11-29T22:24:34.418Z,30.55
2022-11-29T22:27:05.185Z,30.65
2022-11-29T22:29:33.025Z,28.13
2022-11-29T22:32:01.787Z,29.83
2022-11-29T22:34:29.163Z,29.88
2022-11-29T22:36:57.620Z,29.75
2022-11-29T22:39:26.041Z,26.77
2022-11-29T22:41:54.969Z,28.33
2022-11-29T22:44:22.901Z,26.95
2022-11-29T22:46:50.689Z,26.95
2022-11-29T22:49:17.922Z,30.95
2022-11-29T22:51:46.086Z,27.70
2022-11-29T22:54:16.628Z,28.38
2022-11-29T22:56:45.471Z,25.45
2022-11-29T22:59:13.314Z,26.45
2022-11-29T23:01:41.754Z,25.33
2022-11-29T23:04:12.830Z,27.52
2022-11-29T23:06:43.135Z,26.85
2022-11-29T23:09:16.697Z,24.98
2022-11-29T23:11:46.046Z,26.98
2022-11-29T23:14:13.721Z,25.52
2022-11-29T23:16:40.956Z,25.48
2022-11-29T23:19:08.680Z,28.45
2022-11-29T23:21:40.837Z,24.95
2022-11-29T23:24:08.341Z,25.65
2022-11-29T23:26:40.175Z,24.85
2022-11-29T23:29:09.791Z,26.30
2022-11-29T23:31:37.097Z,25.38
2022-11-29T23:34:04.536Z,26.42
2022-11-29T23:36:31.955Z,25.95
2022-11-29T23:38:59.132Z,26.08
2022-11-29T23:41:26.285Z,24.88
2022-11-29T23:43:53.579Z,27.73
2022-11-29T23:46:24.634Z,24.65
2022-11-29T23:48:52.033Z,25.05
2022-11-29T23:51:21.036Z,24.80
2022-11-29T23:53:53.234Z,26.38
2022-11-29T23:56:21.756Z,26.30
2022-11-29T23:58:49.381Z,24.90
